Time;durP1;ratioP1;P1;durP2;ratioP2;P2;SDS_P1;SDS_P2;PMS_P1;PMS_P2;Temp;Humidity;BMP_temperature;BMP_pressure;BME280_temperature;BME280_humidity;BME280_pressure;Samples;Min_cycle;Max_cycle;Signal;HPM_P1;HPM_P2
2023/04/06 00:00:45;;;;;;;;;;;;;;;;;;5001398;28;20033;-82
2023/04/06 00:03:11;;;;;;;8.90;3.65;;;;;;;;;;5026245;28;19948;-81
2023/04/06 00:05:36;;;;;;;;;;;;;;;;;;4982744;28;20037;-81
2023/04/06 00:08:02;;;;;;;8.65;3.70;;;;;;;;;;5026648;28;20016;-83
2023/04/06 00:10:27;;;;;;;;;;;;;;;;;;5004642;28;20080;-83
2023/04/06 00:12:53;;;;;;;7.78;3.47;;;;;;;;;;4994698;28;19913;-83
2023/04/06 00:15:18;;;;;;;;;;;;;;;;;;4992898;28;20046;-82
2023/04/06 00:17:44;;;;;;;8.30;3.60;;;;;;;;;;4993458;28;20337;-81
2023/04/06 00:20:10;;;;;;;;;;;;;;;;;;4992986;28;20038;-83
2023/04/06 00:22:35;;;;;;;6.57;3.35;;;;;;;;;;4995215;28;19916;-81
2023/04/06 00:25:00;;;;;;;;;;;;;;;;;;4999081;28;20038;-81
2023/04/06 00:27:26;;;;;;;7.90;3.60;;;;;;;;;;4999853;28;19916;-82
2023/04/06 00:29:51;;;;;;;;;;;;;;;;;;5003042;28;20034;-82
2023/04/06 00:32:17;;;;;;;7.35;3.38;;;;;;;;;;5026433;28;20352;-82
2023/04/06 00:34:42;;;;;;;;;;;;;;;;;;5003715;28;20050;-82
2023/04/06 00:37:08;;;;;;;7.88;3.75;;;;;;;;;;5003293;28;19921;-82
2023/04/06 00:39:33;;;;;;;;;;;;;;;;;;5005266;28;20037;-82
2023/04/06 00:42:00;;;;;;;9.55;3.70;;;;;;;;;;5013384;28;20029;-82
2023/04/06 00:44:25;;;;;;;8.05;3.55;;;;;;;;;;5007226;28;20087;-83
2023/04/06 00:46:50;;;;;;;;;;;;;;;;;;5010669;28;20072;-82
2023/04/06 00:49:16;;;;;;;10.05;3.65;;;;;;;;;;5011355;28;20362;-81
2023/04/06 00:51:42;;;;;;;;;;;;;;;;;;4994631;28;20450;-82
2023/04/06 00:54:07;;;;;;;7.30;3.45;;;;;;;;;;5010484;28;19917;-82
2023/04/06 00:56:34;;;;;;;8.23;3.70;;;;;;;;;;4983949;28;20034;-82
2023/04/06 00:59:00;;;;;;;7.65;3.53;;;;;;;;;;4976330;28;20441;-82
2023/04/06 01:01:26;;;;;;;;;;;;;;;;;;4973280;28;20026;-82
2023/04/06 01:03:54;;;;;;;;;;;;;;;;;;5023594;28;19996;-82
2023/04/06 01:06:19;;;;;;;;;;;;;;;;;;5025782;28;19964;-83
2023/04/06 01:08:53;;;;;;;;;;;;;;;;;;5025030;28;19963;-83
2023/04/06 01:11:21;;;;;;;;;;;;;;;;;;4992101;28;19940;-82
2023/04/06 01:13:48;;;;;;;;;;;;;;;;;;4976990;28;19914;-82
2023/04/06 01:16:21;;;;;;;;;;;;;;;;;;5024977;28;19914;-82
2023/04/06 01:19:07;;;;;;;;;;;;;;;;;;4983172;28;20359;-83
2023/04/06 01:21:32;;;;;;;;;;;;;;;;;;4997747;28;19956;-83
2023/04/06 01:24:18;;;;;;;;;;;;;;;;;;4996228;28;19921;-82
2023/04/06 01:27:06;;;;;;;;;;;;;;;;;;4987612;28;19953;-82
2023/04/06 01:29:47;;;;;;;;;;;;;;;;;;4993241;28;20023;-82
2023/04/06 01:32:18;;;;;;;;;;;;;;;;;;4992502;28;20080;-82
2023/04/06 01:34:48;;;;;;;;;;;;;;;;;;4992248;28;19972;-82
2023/04/06 01:37:13;;;;;;;;;;;;;;;;;;4998786;28;19913;-82
2023/04/06 01:39:39;;;;;;;;;;;;;;;;;;4993357;28;20016;-82
2023/04/06 01:42:06;;;;;;;;;;;;;;;;;;4992538;28;20435;-82
2023/04/06 01:44:33;;;;;;;;;;;;;;;;;;4996438;28;19914;-82
2023/04/06 01:47:08;;;;;;;;;;;;;;;;;;4996610;28;20365;-81
2023/04/06 01:49:33;;;;;;;;;;;;;;;;;;4998451;28;19913;-82
2023/04/06 01:51:59;;;;;;;;;;;;;;;;;;4998622;28;20125;-81
2023/04/06 01:54:25;;;;;;;;;;;;;;;;;;5015234;28;19917;-82
2023/04/06 01:57:07;;;;;;;;;;;;;;;;;;5000368;28;19963;-81
2023/04/06 01:59:40;;;;;;;;;;;;;;;;;;5032185;28;19925;-81
2023/04/06 02:02:12;;;;;;;;;;;;;;;;;;5003250;28;19960;-81
2023/04/06 02:04:40;;;;;;;;;;;;;;;;;;5031354;28;19918;-81
2023/04/06 02:07:09;;;;;;;;;;;;;;;;;;5027390;28;19910;-81
2023/04/06 02:09:35;;;;;;;;;;;;;;;;;;5030738;28;19913;-81
2023/04/06 02:12:01;;;;;;;;;;;;;;;;;;5030448;28;19909;-82
2023/04/06 02:14:27;;;;;;;;;;;;;;;;;;4995440;28;20271;-82
2023/04/06 02:16:56;;;;;;;;;;;;;;;;;;5019429;28;19960;-82
2023/04/06 02:19:22;;;;;;;;;;;;;;;;;;4999016;28;19918;-82
2023/04/06 02:21:47;;;;;;;;;;;;;;;;;;4997413;28;19910;-82
2023/04/06 02:24:13;;;;;;;;;;;;;;;;;;4999357;28;20012;-82
2023/04/06 02:26:38;;;;;;;;;;;;;;;;;;4997925;28;19917;-82
2023/04/06 02:29:04;;;;;;;;;;;;;;;;;;4998198;28;20377;-82
2023/04/06 02:31:31;;;;;;;;;;;;;;;;;;5000275;28;19914;-82
2023/04/06 02:34:21;;;;;;;;;;;;;;;;;;5000253;28;19949;-83
2023/04/06 02:36:49;;;;;;;;;;;;;;;;;;5033141;28;19914;-82
2023/04/06 02:39:15;;;;;;;;;;;;;;;;;;5030438;28;19956;-82
2023/04/06 02:41:40;;;;;;;;;;;;;;;;;;5031045;28;20533;-82
2023/04/06 02:44:06;;;;;;;;;;;;;;;;;;4997751;28;19910;-82
2023/04/06 02:46:42;;;;;;;;;;;;;;;;;;5032441;28;19914;-82
2023/04/06 02:49:07;;;;;;;;;;;;;;;;;;5000910;28;19923;-82
2023/04/06 02:51:33;;;;;;;;;;;;;;;;;;5030463;28;19910;-82
2023/04/06 02:54:11;;;;;;;;;;;;;;;;;;4997576;28;19918;-82
2023/04/06 02:56:36;;;;;;;;;;;;;;;;;;5026766;28;20297;-82
2023/04/06 02:59:02;;;;;;;;;;;;;;;;;;5029342;28;19909;-82
2023/04/06 03:01:30;;;;;;;;;;;;;;;;;;5027420;28;19960;-82
2023/04/06 03:03:59;;;;;;;;;;;;;;;;;;4993504;28;19910;-84
2023/04/06 03:06:26;;;;;;;;;;;;;;;;;;5026805;28;19968;-82
2023/04/06 03:08:55;;;;;;;;;;;;;;;;;;4996702;28;19914;-82
2023/04/06 03:11:21;;;;;;;;;;;;;;;;;;5014570;28;19920;-83
2023/04/06 03:13:48;;;;;;;;;;;;;;;;;;5033697;28;19929;-83
2023/04/06 03:16:14;;;;;;;;;;;;;;;;;;5027574;28;19914;-83
2023/04/06 03:18:40;;;;;;;;;;;;;;;;;;5001310;28;19925;-83
2023/04/06 03:21:05;;;;;;;;;;;;;;;;;;4994874;28;20316;-83
2023/04/06 03:23:43;;;;;;;;;;;;;;;;;;4993720;28;19936;-83
2023/04/06 03:26:08;;;;;;;;;;;;;;;;;;4995455;28;19913;-84
2023/04/06 03:28:34;;;;;;;;;;;;;;;;;;4996046;28;19914;-81
2023/04/06 03:31:02;;;;;;;;;;;;;;;;;;4995750;28;19913;-82
2023/04/06 03:33:57;;;;;;;;;;;;;;;;;;4988862;28;19996;-82
2023/04/06 03:36:27;;;;;;;;;;;;;;;;;;5026014;28;19914;-82
2023/04/06 03:38:54;;;;;;;;;;;;;;;;;;4998232;28;19957;-82
2023/04/06 03:41:20;;;;;;;;;;;;;;;;;;4994138;28;19949;-82
2023/04/06 03:43:53;;;;;;;;;;;;;;;;;;4997745;28;20328;-81
2023/04/06 03:46:18;;;;;;;;;;;;;;;;;;4994275;28;19928;-82
2023/04/06 03:48:43;;;;;;;;;;;;;;;;;;4995883;28;19916;-82
2023/04/06 03:51:09;;;;;;;;;;;;;;;;;;4994228;28;19968;-82
2023/04/06 03:53:36;;;;;;;;;;;;;;;;;;4995719;28;19914;-82
2023/04/06 03:56:02;;;;;;;;;;;;;;;;;;5026457;28;19914;-83
2023/04/06 03:58:27;;;;;;;;;;;;;;;;;;4994190;28;19910;-81
2023/04/06 04:00:52;;;;;;;;;;;;;;;;;;4995056;28;19914;-82
2023/04/06 04:03:18;;;;;;;;;;;;;;;;;;5026682;28;19909;-82
2023/04/06 04:05:43;;;;;;;;;;;;;;;;;;5008851;28;20319;-83
2023/04/06 04:08:09;;;;;;;;;;;;;;;;;;5027765;28;20410;-82
2023/04/06 04:10:35;;;;;;;;;;;;;;;;;;5008185;28;19963;-82
2023/04/06 04:13:00;;;;;;;;;;;;;;;;;;5004315;28;20032;-82
2023/04/06 04:15:25;;;;;;;;;;;;;;;;;;4996321;28;19924;-82
2023/04/06 04:17:51;;;;;;;;;;;;;;;;;;5001071;28;20732;-82
2023/04/06 04:20:16;;;;;;;;;;;;;;;;;;4998264;28;19913;-83
2023/04/06 04:22:42;;;;;;;;;;;;;;;;;;4977556;28;19910;-82
2023/04/06 04:25:08;;;;;;;;;;;;;;;;;;4993718;28;19945;-83
2023/04/06 04:27:37;;;;;;;;;;;;;;;;;;4994033;28;20300;-83
2023/04/06 04:30:02;;;;;;;;;;;;;;;;;;4994875;28;19913;-83
2023/04/06 04:32:27;;;;;;;;;;;;;;;;;;4991214;28;19914;-81
2023/04/06 04:34:54;;;;;;;;;;;;;;;;;;4992950;28;19929;-82
2023/04/06 04:37:30;;;;;;;;;;;;;;;;;;4993486;28;19960;-83
2023/04/06 04:39:56;;;;;;;;;;;;;;;;;;5023187;28;20388;-77
2023/04/06 04:42:22;;;;;;;;;;;;;;;;;;5006105;28;19914;-80
2023/04/06 04:44:50;;;;;;;;;;;;;;;;;;4989299;28;19918;-82
2023/04/06 04:47:25;;;;;;;;;;;;;;;;;;4992136;28;20419;-81
2023/04/06 04:49:51;;;;;;;;;;;;;;;;;;5024530;28;19913;-83
2023/04/06 04:52:20;;;;;;;;;;;;;;;;;;4991339;28;20345;-82
2023/04/06 04:54:56;;;;;;;;;;;;;;;;;;5023921;28;19961;-80
2023/04/06 04:57:25;;;;;;;;;;;;;;;;;;4991627;28;20002;-82
2023/04/06 04:59:51;;;;;;;;;;;;;;;;;;5020952;28;19913;-82
2023/04/06 05:02:17;;;;;;;;;;;;;;;;;;5007918;28;20288;-82
2023/04/06 05:04:54;;;;;;;;;;;;;;;;;;5017447;28;19914;-84
2023/04/06 05:07:23;;;;;;;;;;;;;;;;;;4992308;28;19914;-83
2023/04/06 05:09:49;;;;;;;;;;;;;;;;;;4990222;28;20004;-84
2023/04/06 05:12:15;;;;;;;;;;;;;;;;;;5023401;28;19914;-83
2023/04/06 05:14:50;;;;;;;;;;;;;;;;;;4991542;28;19917;-83
2023/04/06 05:17:17;;;;;;;;;;;;;;;;;;5004280;28;20000;-83
2023/04/06 05:19:43;;;;;;;;;;;;;;;;;;4993409;28;19960;-85
2023/04/06 05:22:09;;;;;;;;;;;;;;;;;;5026619;28;19948;-84
2023/04/06 05:24:37;;;;;;;;;;;;;;;;;;5026393;28;20000;-83
2023/04/06 05:27:05;;;;;;;;;;;;;;;;;;5024535;28;19913;-85
2023/04/06 05:29:30;;;;;;;;;;;;;;;;;;4997588;28;19916;-82
2023/04/06 05:31:55;;;;;;;;;;;;;;;;;;5026171;28;19914;-82
2023/04/06 05:34:21;;;;;;;;;;;;;;;;;;4995887;28;19965;-84
2023/04/06 05:36:48;;;;;;;;;;;;;;;;;;5023844;28;19914;-83
2023/04/06 05:39:24;;;;;;;;;;;;;;;;;;4980406;28;20448;-88
2023/04/06 05:41:52;;;;;;;;;;;;;;;;;;5027380;28;19914;-85
2023/04/06 05:44:28;;;;;;;;;;;;;;;;;;4997259;28;19964;-85
2023/04/06 05:47:01;;;;;;;;;;;;;;;;;;5025963;28;19929;-85
2023/04/06 05:49:52;;;;;;;;;;;;;;;;;;4994657;28;19936;-84
2023/04/06 05:52:25;;;;;;;;;;;;;;;;;;4993493;28;20304;-84
2023/04/06 05:54:50;;;;;;;;;;;;;;;;;;5012071;28;19921;-84
2023/04/06 05:57:19;;;;;;;;;;;;;;;;;;4992066;28;19909;-85
2023/04/06 05:59:44;;;;;;;;;;;;;;;;;;4997531;28;20590;-84
2023/04/06 06:02:11;;;;;;;;;;;;;;;;;;4991458;28;19910;-84
2023/04/06 06:04:40;;;;;;;;;;;;;;;;;;5024083;28;19917;-84
2023/04/06 06:07:05;;;;;;;;;;;;;;;;;;4991770;28;20056;-85
2023/04/06 06:09:42;;;;;;;;;;;;;;;;;;5023898;28;19914;-85
2023/04/06 06:12:19;;;;;;;;;;;;;;;;;;4983246;28;19925;-85
2023/04/06 06:14:46;;;;;;;;;;;;;;;;;;5024523;28;19928;-84
2023/04/06 06:17:12;;;;;;;;;;;;;;;;;;5024841;28;19925;-85
2023/04/06 06:19:37;;;;;;;;;;;;;;;;;;4993382;28;20360;-85
2023/04/06 06:22:05;;;;;;;;;;;;;;;;;;4993319;28;20019;-85
2023/04/06 06:24:33;;;;;;;;;;;;;;;;;;4996369;28;20386;-86
2023/04/06 06:27:00;;;;;;;;;;;;;;;;;;5027840;28;19914;-85
2023/04/06 06:29:27;;;;;;;;;;;;;;;;;;4997898;28;19914;-86
2023/04/06 06:31:52;;;;;;;;;;;;;;;;;;5029392;28;20391;-86
2023/04/06 06:34:18;;;;;;;;;;;;;;;;;;4997307;28;19926;-86
2023/04/06 06:36:43;;;;;;;;;;;;;;;;;;5038096;28;19920;-86
2023/04/06 06:39:11;;;;;;;;;;;;;;;;;;5000941;28;20000;-87
2023/04/06 06:41:36;;;;;;;;;;;;;;;;;;5028416;28;19941;-87
2023/04/06 06:44:02;;;;;;;;;;;;;;;;;;4995413;28;20388;-84
2023/04/06 06:46:28;;;;;;;;;;;;;;;;;;5010873;28;19921;-85
2023/04/06 06:48:53;;;;;;;;;;;;;;;;;;4997425;28;19924;-85
2023/04/06 06:51:19;;;;;;;;;;;;;;;;;;4997347;28;19920;-85
2023/04/06 06:53:44;;;;;;;;;;;;;;;;;;4995796;28;19914;-85
2023/04/06 06:56:10;;;;;;;;;;;;;;;;;;5022405;28;19918;-85
2023/04/06 06:58:35;;;;;;;;;;;;;;;;;;4997447;28;19910;-85
2023/04/06 07:01:00;;;;;;;;;;;;;;;;;;5028569;28;20389;-86
2023/04/06 07:03:28;;;;;;;;;;;;;;;;;;4994543;28;19910;-85
2023/04/06 07:05:53;;;;;;;;;;;;;;;;;;5022033;28;20016;-85
2023/04/06 07:08:19;;;;;;;;;;;;;;;;;;4994826;28;19959;-86
2023/04/06 07:10:45;;;;;;;;;;;;;;;;;;4996838;28;19916;-86
2023/04/06 07:13:10;;;;;;;;;;;;;;;;;;4997465;28;19910;-85
2023/04/06 07:15:36;;;;;;;;;;;;;;;;;;5010308;28;19917;-86
2023/04/06 07:18:02;;;;;;;;;;;;;;;;;;4998134;28;19918;-86
2023/04/06 07:20:27;;;;;;;;;;;;;;;;;;5014426;28;19914;-86
2023/04/06 07:22:53;;;;;;;;;;;;;;;;;;4999161;28;19953;-86
2023/04/06 07:25:18;;;;;;;;;;;;;;;;;;5032214;28;20001;-87
2023/04/06 07:27:44;;;;;;;;;;;;;;;;;;4995535;28;19916;-87
2023/04/06 07:30:10;;;;;;;;;;;;;;;;;;5027793;28;19918;-85
2023/04/06 07:32:35;;;;;;;;;;;;;;;;;;4995702;28;20360;-86
2023/04/06 07:35:02;;;;;;;;;;;;;;;;;;5026439;28;19980;-85
2023/04/06 07:37:28;;;;;;;;;;;;;;;;;;4995515;28;19913;-86
2023/04/06 07:39:53;;;;;;;;;;;;;;;;;;4995937;28;19920;-86
2023/04/06 07:42:19;;;;;;;;;;;;;;;;;;4978472;28;19983;-85
2023/04/06 07:44:44;;;;;;;;;;;;;;;;;;5021534;28;20140;-85
2023/04/06 07:47:10;;;;;;;;;;;;;;;;;;4996213;28;19922;-86
2023/04/06 07:49:36;;;;;;;;;;;;;;;;;;5022712;28;19959;-87
2023/04/06 07:52:02;;;;;;;;;;;;;;;;;;4995543;28;19909;-86
2023/04/06 07:54:28;;;;;;;;;;;;;;;;;;5020797;28;19918;-87
2023/04/06 07:56:53;;;;;;;;;;;;;;;;;;4996602;28;19909;-87
2023/04/06 07:59:19;;;;;;;;;;;;;;;;;;5021517;28;20412;-86
2023/04/06 08:01:44;;;;;;;;;;;;;;;;;;4996362;28;20099;-87
2023/04/06 08:04:09;;;;;;;;;;;;;;;;;;4995869;28;20266;-86
2023/04/06 08:06:36;;;;;;;;;;;;;;;;;;4994903;28;20297;-87
2023/04/06 08:09:01;;;;;;;;;;;;;;;;;;5018754;28;20307;-86
2023/04/06 08:11:27;;;;;;;;;;;;;;;;;;4995823;28;19913;-87
2023/04/06 08:13:52;;;;;;;;;;;;;;;;;;4986558;28;19984;-87
2023/04/06 08:16:19;;;;;;;;;;;;;;;;;;4997956;28;20063;-86
2023/04/06 08:18:44;;;;;;;;;;;;;;;;;;4995679;28;19914;-86
2023/04/06 08:21:09;;;;;;;;;;;;;;;;;;5027342;28;20272;-86
2023/04/06 08:23:35;;;;;;;;;;;;;;;;;;5008349;28;19944;-86
2023/04/06 08:26:00;;;;;;;;;;;;;;;;;;5008403;28;19914;-86
2023/04/06 08:28:26;;;;;;;;;;;;;;;;;;5027386;28;19910;-86
2023/04/06 08:30:51;;;;;;;;;;;;;;;;;;4996093;28;19914;-86
2023/04/06 08:33:16;;;;;;;;;;;;;;;;;;4995570;28;19940;-86
2023/04/06 08:35:42;;;;;;;;;;;;;;;;;;4994066;28;20295;-86
2023/04/06 08:38:07;;;;;;;;;;;;;;;;;;4996560;28;20288;-87
2023/04/06 08:40:32;;;;;;;;;;;;;;;;;;4997231;28;20373;-86
2023/04/06 08:42:58;;;;;;;;;;;;;;;;;;4998881;28;19916;-86
2023/04/06 08:45:23;;;;;;;;;;;;;;;;;;4997210;28;19921;-86
2023/04/06 08:47:49;;;;;;;;;;;;;;;;;;4998801;28;20380;-86
2023/04/06 08:50:14;;;;;;;;;;;;;;;;;;4997381;28;19917;-85
2023/04/06 08:52:40;;;;;;;;;;;;;;;;;;4998557;28;19939;-87
2023/04/06 08:55:05;;;;;;;;;;;;;;;;;;4996499;28;19917;-87
2023/04/06 08:57:31;;;;;;;;;;;;;;;;;;4998781;28;19909;-86
2023/04/06 08:59:56;;;;;;;;;;;;;;;;;;4998837;28;20008;-87
2023/04/06 09:02:21;;;;;;;;;;;;;;;;;;5002406;28;19916;-86
2023/04/06 09:04:47;;;;;;;;;;;;;;;;;;4997654;28;19913;-87
2023/04/06 09:07:12;;;;;;;;;;;;;;;;;;5005045;28;19913;-86
2023/04/06 09:09:43;;;;;;;;;;;;;;;;;;4999677;28;20000;-86
2023/04/06 09:12:12;;;;;;;;;;;;;;;;;;5032577;28;20035;-87
2023/04/06 09:14:37;;;;;;;;;;;;;;;;;;4994671;28;20413;-87
2023/04/06 09:17:03;;;;;;;;;;;;;;;;;;4997603;28;20012;-86
2023/04/06 09:19:28;;;;;;;;;;;;;;;;;;4997567;28;19914;-87
2023/04/06 09:21:53;;;;;;;;;;;;;;;;;;4997106;28;19948;-87
2023/04/06 09:24:25;;;;;;;;;;;;;;;;;;4993423;28;19921;-86
2023/04/06 09:26:50;;;;;;;;;;;;;;;;;;4998019;28;19965;-86
2023/04/06 09:29:15;;;;;;;;;;;;;;;;;;4994738;28;19959;-87
2023/04/06 09:31:41;;;;;;;;;;;;;;;;;;4991222;28;19913;-85
2023/04/06 09:34:06;;;;;;;;;;;;;;;;;;4994666;28;20309;-87
2023/04/06 09:36:32;;;;;;;;;;;;;;;;;;4994695;28;20403;-87
2023/04/06 09:38:57;;;;;;;;;;;;;;;;;;4994528;28;19909;-87
2023/04/06 09:41:23;;;;;;;;;;;;;;;;;;4994979;28;19913;-87
2023/04/06 09:43:48;;;;;;;;;;;;;;;;;;4995336;28;19918;-87
2023/04/06 09:46:14;;;;;;;;;;;;;;;;;;4993687;28;19914;-87
2023/04/06 09:48:39;;;;;;;;;;;;;;;;;;4993620;28;20072;-87
2023/04/06 09:51:05;;;;;;;;;;;;;;;;;;4992473;28;20358;-86
2023/04/06 09:53:33;;;;;;;;;;;;;;;;;;4977094;28;19921;-86
2023/04/06 09:56:00;;;;;;;;;;;;;;;;;;4994342;28;20013;-86
2023/04/06 09:58:26;;;;;;;;;;;;;;;;;;4993909;28;19992;-85
2023/04/06 10:00:52;;;;;;;;;;;;;;;;;;4992250;28;19925;-85
2023/04/06 10:03:17;;;;;;;;;;;;;;;;;;4994141;28;20391;-86
2023/04/06 10:05:42;;;;;;;;;;;;;;;;;;4992967;28;19975;-85
2023/04/06 10:08:08;;;;;;;;;;;;;;;;;;4993177;28;19909;-86
2023/04/06 10:10:33;;;;;;;;;;;;;;;;;;4982694;28;19917;-87
2023/04/06 10:12:59;;;;;;;;;;;;;;;;;;4998181;28;20288;-85
2023/04/06 10:15:25;;;;;;;;;;;;;;;;;;4994050;28;19925;-86
2023/04/06 10:17:50;;;;;;;;;;;;;;;;;;4997792;28;19922;-86
2023/04/06 10:20:15;;;;;;;;;;;;;;;;;;5001989;28;20388;-86
2023/04/06 10:22:41;;;;;;;;;;;;;;;;;;4998087;28;19917;-85
2023/04/06 10:25:06;;;;;;;;;;;;;;;;;;4997777;28;19913;-87
2023/04/06 10:27:31;;;;;;;;;;;;;;;;;;4997698;28;19956;-87
2023/04/06 10:29:57;;;;;;;;;;;;;;;;;;5014283;28;19920;-88
2023/04/06 10:32:22;;;;;;;;;;;;;;;;;;5002498;28;19917;-88
2023/04/06 10:34:47;;;;;;;;;;;;;;;;;;5030513;28;19954;-86
2023/04/06 10:37:13;;;;;;;;;;;;;;;;;;5003220;28;19910;-87
2023/04/06 10:39:38;;;;;;;;;;;;;;;;;;5007552;28;19913;-87
2023/04/06 10:42:04;;;;;;;;;;;;;;;;;;5004159;28;19909;-87
2023/04/06 10:44:29;;;;;;;;;;;;;;;;;;5007092;28;20396;-87
2023/04/06 10:46:54;;;;;;;;;;;;;;;;;;5004057;28;20004;-86
2023/04/06 10:49:20;;;;;;;;;;;;;;;;;;5008224;28;19913;-87
2023/04/06 10:51:45;;;;;;;;;;;;;;;;;;5004112;28;20001;-87
2023/04/06 10:54:10;;;;;;;;;;;;;;;;;;5007765;28;19916;-87
2023/04/06 10:56:36;;;;;;;;;;;;;;;;;;5004760;28;19965;-87
2023/04/06 10:59:01;;;;;;;;;;;;;;;;;;5008502;28;19993;-86
2023/04/06 11:01:27;;;;;;;;;;;;;;;;;;5026779;28;19910;-86
2023/04/06 11:04:18;;;;;;;;;;;;;;;;;;5001712;28;19963;-86
2023/04/06 11:06:43;;;;;;;;;;;;;;;;;;4996810;28;20381;-87
2023/04/06 11:09:08;;;;;;;;;;;;;;;;;;4988709;28;19910;-86
2023/04/06 11:11:34;;;;;;;;;;;;;;;;;;4996644;28;19913;-87
2023/04/06 11:13:59;;;;;;;;;;;;;;;;;;4992848;28;19918;-87
2023/04/06 11:16:25;;;;;;;;;;;;;;;;;;4995977;28;19914;-87
2023/04/06 11:18:50;;;;;;;;;;;;;;;;;;4998601;28;19941;-87
2023/04/06 11:21:15;;;;;;;;;;;;;;;;;;4995660;28;19920;-87
2023/04/06 11:23:41;;;;;;;;;;;;;;;;;;4996590;28;19910;-85
2023/04/06 11:26:08;;;;;;;;;;;;;;;;;;4996633;28;19914;-87
2023/04/06 11:28:36;;;;;;;;;;;;;;;;;;4994213;28;19916;-87
2023/04/06 11:31:01;;;;;;;;;;;;;;;;;;4995138;28;19913;-87
2023/04/06 11:33:26;;;;;;;;;;;;;;;;;;5027329;28;19918;-86
2023/04/06 11:35:52;;;;;;;;;;;;;;;;;;4994033;28;19922;-87
2023/04/06 11:38:17;;;;;;;;;;;;;;;;;;5027381;28;19910;-87
2023/04/06 11:40:43;;;;;;;;;;;;;;;;;;5027509;28;19976;-87
2023/04/06 11:43:08;;;;;;;;;;;;;;;;;;5024660;28;20298;-87
2023/04/06 11:45:33;;;;;;;;;;;;;;;;;;4993894;28;19920;-86
2023/04/06 11:47:59;;;;;;;;;;;;;;;;;;4978939;28;19968;-87
2023/04/06 11:50:24;;;;;;;;;;;;;;;;;;4996009;28;19968;-87
2023/04/06 11:52:49;;;;;;;;;;;;;;;;;;4995692;28;19921;-87
2023/04/06 11:55:15;;;;;;;;;;;;;;;;;;4993815;28;19942;-87
2023/04/06 11:57:40;;;;;;;;;;;;;;;;;;4990224;28;19964;-87
2023/04/06 12:00:06;;;;;;;;;;;;;;;;;;4995161;28;19920;-88
2023/04/06 12:02:32;;;;;;;;;;;;;;;;;;4994901;28;19910;-87
2023/04/06 12:04:57;;;;;;;;;;;;;;;;;;4995523;28;19921;-86
2023/04/06 12:07:22;;;;;;;;;;;;;;;;;;4996130;28;20373;-87
2023/04/06 12:09:48;;;;;;;;;;;;;;;;;;5020928;28;19914;-87
2023/04/06 12:12:13;;;;;;;;;;;;;;;;;;5019616;28;19914;-87
2023/04/06 12:14:38;;;;;;;;;;;;;;;;;;5024887;28;19972;-87
2023/04/06 12:17:04;;;;;;;;;;;;;;;;;;5027063;28;19993;-87
2023/04/06 12:19:29;;;;;;;;;;;;;;;;;;4998181;28;19914;-86
2023/04/06 12:21:56;;;;;;;;;;;;;;;;;;5000151;28;19996;-87
2023/04/06 12:24:21;;;;;;;;;;;;;;;;;;4996738;28;19909;-86
2023/04/06 12:26:47;;;;;;;;;;;;;;;;;;4995319;28;20445;-86
2023/04/06 12:29:13;;;;;;;;;;;;;;;;;;4996148;28;20237;-86
2023/04/06 12:31:40;;;;;;;;;;;;;;;;;;4995079;28;20056;-86
2023/04/06 12:34:05;;;;;;;;;;;;;;;;;;4993799;28;19921;-87
2023/04/06 12:36:31;;;;;;;;;;;;;;;;;;4992976;28;19914;-87
2023/04/06 12:38:56;;;;;;;;;;;;;;;;;;4994466;28;19909;-86
2023/04/06 12:41:21;;;;;;;;;;;;;;;;;;4994036;28;20415;-87
2023/04/06 12:43:47;;;;;;;;;;;;;;;;;;4978349;28;19910;-87
2023/04/06 12:46:12;;;;;;;;;;;;;;;;;;4993725;28;19913;-87
2023/04/06 12:48:37;;;;;;;;;;;;;;;;;;4994637;28;20299;-86
2023/04/06 12:51:03;;;;;;;;;;;;;;;;;;4994207;28;19913;-88
2023/04/06 12:53:28;;;;;;;;;;;;;;;;;;4994145;28;20369;-88
2023/04/06 12:55:54;;;;;;;;;;;;;;;;;;4991641;28;19957;-88
2023/04/06 12:58:19;;;;;;;;;;;;;;;;;;4992860;28;19914;-86
2023/04/06 13:00:45;;;;;;;;;;;;;;;;;;4992435;28;19914;-88
2023/04/06 13:03:10;;;;;;;;;;;;;;;;;;4993249;28;19932;-87
2023/04/06 13:05:35;;;;;;;;;;;;;;;;;;4992495;28;19913;-87
2023/04/06 13:08:01;;;;;;;;;;;;;;;;;;4993979;28;19999;-87
2023/04/06 13:10:26;;;;;;;;;;;;;;;;;;4998922;28;20333;-87
2023/04/06 13:12:52;;;;;;;;;;;;;;;;;;4995706;28;20376;-86
2023/04/06 13:15:17;;;;;;;;;;;;;;;;;;4991004;28;19917;-87
2023/04/06 13:17:42;;;;;;;;;;;;;;;;;;4997571;28;19948;-86
2023/04/06 13:20:08;;;;;;;;;;;;;;;;;;4995977;28;19917;-88
2023/04/06 13:22:33;;;;;;;;;;;;;;;;;;4993782;28;19916;-86
2023/04/06 13:24:59;;;;;;;;;;;;;;;;;;4991707;28;20040;-86
2023/04/06 13:27:24;;;;;;;;;;;;;;;;;;4993647;28;19917;-86
2023/04/06 13:29:49;;;;;;;;;;;;;;;;;;4993243;28;19918;-86
2023/04/06 13:32:15;;;;;;;;;;;;;;;;;;4993632;28;19910;-86
2023/04/06 13:34:44;;;;;;;;;;;;;;;;;;4993800;28;19922;-87
2023/04/06 13:37:09;;;;;;;;;;;;;;;;;;4991735;28;20340;-86
2023/04/06 13:39:35;;;;;;;;;;;;;;;;;;5001443;28;19920;-87
2023/04/06 13:42:01;;;;;;;;;;;;;;;;;;4999203;28;19921;-87
2023/04/06 13:44:26;;;;;;;;;;;;;;;;;;5031166;28;20004;-87
2023/04/06 13:46:53;;;;;;;;;;;;;;;;;;4998431;28;19964;-87
2023/04/06 13:49:18;;;;;;;;;;;;;;;;;;4992771;28;19957;-87
2023/04/06 13:51:44;;;;;;;;;;;;;;;;;;4977444;28;19918;-87
2023/04/06 13:54:09;;;;;;;;;;;;;;;;;;5004406;28;19940;-87
2023/04/06 13:56:35;;;;;;;;;;;;;;;;;;5016569;28;19914;-87
2023/04/06 13:59:00;;;;;;;;;;;;;;;;;;4999855;28;19948;-86
2023/04/06 14:01:26;;;;;;;;;;;;;;;;;;4996867;28;20004;-86
2023/04/06 14:03:51;;;;;;;;;;;;;;;;;;4998065;28;19913;-87
2023/04/06 14:06:17;;;;;;;;;;;;;;;;;;4995484;28;20436;-87
2023/04/06 14:08:42;;;;;;;;;;;;;;;;;;4996813;28;19958;-86
2023/04/06 14:11:08;;;;;;;;;;;;;;;;;;4997078;28;19955;-87
2023/04/06 14:13:33;;;;;;;;;;;;;;;;;;4996367;28;19956;-86
2023/04/06 14:15:58;;;;;;;;;;;;;;;;;;5028944;28;19960;-86
2023/04/06 14:18:24;;;;;;;;;;;;;;;;;;4981841;28;20343;-87
2023/04/06 14:20:49;;;;;;;;;;;;;;;;;;5026046;28;19955;-86
2023/04/06 14:23:15;;;;;;;;;;;;;;;;;;5029230;28;19917;-87
2023/04/06 14:25:40;;;;;;;;;;;;;;;;;;4999303;28;19913;-86
2023/04/06 14:28:06;;;;;;;;;;;;;;;;;;5011015;28;19909;-87
2023/04/06 14:30:31;;;;;;;;;;;;;;;;;;4975257;28;20008;-87
2023/04/06 14:32:56;;;;;;;;;;;;;;;;;;5018005;28;19969;-86
2023/04/06 14:35:22;;;;;;;;;;;;;;;;;;4999979;28;20424;-87
2023/04/06 14:37:47;;;;;;;;;;;;;;;;;;5027815;28;19916;-86
2023/04/06 14:40:12;;;;;;;;;;;;;;;;;;4991598;28;20481;-86
2023/04/06 14:42:38;;;;;;;;;;;;;;;;;;5036796;28;19937;-86
2023/04/06 14:45:03;;;;;;;;;;;;;;;;;;4992906;28;19913;-86
2023/04/06 14:47:29;;;;;;;;;;;;;;;;;;4991916;28;19917;-87
2023/04/06 14:49:54;;;;;;;;;;;;;;;;;;4993874;28;19914;-86
2023/04/06 14:52:19;;;;;;;;;;;;;;;;;;4993206;28;19944;-87
2023/04/06 14:54:45;;;;;;;;;;;;;;;;;;4992699;28;19925;-88
2023/04/06 14:57:10;;;;;;;;;;;;;;;;;;5006167;28;19963;-85
2023/04/06 14:59:35;;;;;;;;;;;;;;;;;;4999286;28;19913;-88
2023/04/06 15:02:01;;;;;;;;;;;;;;;;;;4999264;28;19956;-87
2023/04/06 15:04:26;;;;;;;;;;;;;;;;;;4997870;28;19914;-85
2023/04/06 15:06:51;;;;;;;;;;;;;;;;;;5002880;28;20008;-85
2023/04/06 15:09:17;;;;;;;;;;;;;;;;;;4995884;28;19920;-86
2023/04/06 15:11:42;;;;;;;;;;;;;;;;;;4997421;28;19909;-86
2023/04/06 15:14:07;;;;;;;;;;;;;;;;;;4997094;28;20373;-86
2023/04/06 15:16:33;;;;;;;;;;;;;;;;;;5001016;28;19914;-85
2023/04/06 15:18:58;;;;;;;;;;;;;;;;;;4997332;28;19918;-83
2023/04/06 15:21:23;;;;;;;;;;;;;;;;;;5028240;28;19933;-86
2023/04/06 15:23:49;;;;;;;;;;;;;;;;;;5001256;28;19917;-89
2023/04/06 15:26:15;;;;;;;;;;;;;;;;;;5000410;28;19934;-87
2023/04/06 15:28:40;;;;;;;;;;;;;;;;;;4997106;28;19913;-85
2023/04/06 15:31:06;;;;;;;;;;;;;;;;;;4993322;28;19910;-86
2023/04/06 15:33:31;;;;;;;;;;;;;;;;;;4994645;28;20388;-84
2023/04/06 15:35:57;;;;;;;;;;;;;;;;;;4997806;28;19921;-85
2023/04/06 15:38:22;;;;;;;;;;;;;;;;;;5007085;28;19920;-85
2023/04/06 15:40:47;;;;;;;;;;;;;;;;;;5001997;28;19924;-86
2023/04/06 15:43:13;;;;;;;;;;;;;;;;;;4997428;28;19944;-86
2023/04/06 15:45:38;;;;;;;;;;;;;;;;;;5029241;28;19932;-87
2023/04/06 15:48:03;;;;;;;;;;;;;;;;;;5003649;28;19953;-86
2023/04/06 15:50:29;;;;;;;;;;;;;;;;;;5027068;28;19913;-85
2023/04/06 15:52:54;;;;;;;;;;;;;;;;;;5003323;28;19945;-85
2023/04/06 15:55:19;;;;;;;;;;;;;;;;;;5006332;28;19917;-86
2023/04/06 15:57:45;;;;;;;;;;;;;;;;;;5014470;28;19942;-86
2023/04/06 16:00:10;;;;;;;;;;;;;;;;;;5010400;28;19910;-86
2023/04/06 16:02:35;;;;;;;;;;;;;;;;;;4995293;28;20000;-86
2023/04/06 16:05:02;;;;;;;;;;;;;;;;;;5026156;28;19916;-85
2023/04/06 16:07:27;;;;;;;;;;;;;;;;;;4994503;28;19936;-86
2023/04/06 16:09:53;;;;;;;;;;;;;;;;;;4994638;28;19910;-85
2023/04/06 16:12:18;;;;;;;;;;;;;;;;;;4995116;28;19918;-85
2023/04/06 16:14:43;;;;;;;;;;;;;;;;;;4996653;28;19913;-85
2023/04/06 16:17:09;;;;;;;;;;;;;;;;;;4996271;28;19969;-86
2023/04/06 16:19:35;;;;;;;;;;;;;;;;;;4985109;28;20009;-85
2023/04/06 16:22:01;;;;;;;;;;;;;;;;;;4997210;28;19913;-83
2023/04/06 16:24:26;;;;;;;;;;;;;;;;;;4996938;28;20367;-85
2023/04/06 16:26:51;;;;;;;;;;;;;;;;;;4999065;28;19913;-86
2023/04/06 16:29:17;;;;;;;;;;;;;;;;;;4997915;28;19956;-86
2023/04/06 16:31:46;;;;;;;;;;;;;;;;;;5029341;28;20301;-86
2023/04/06 16:34:11;;;;;;;;;;;;;;;;;;4986179;28;19925;-86
2023/04/06 16:36:39;;;;;;;;;;;;;;;;;;5002431;28;19967;-83